sensor_id;sensor_type;location;lat;lon;timestamp;P1;durP1;ratioP1;P2;durP2;ratioP2
31734;SDS011;18313;48.518;9.124;2023-11-21T00:01:16;4.88;;;1.40;;
31734;SDS011;18313;48.518;9.124;2023-11-21T00:03:44;7.30;;;1.88;;
31734;SDS011;18313;48.518;9.124;2023-11-21T00:06:11;7.38;;;1.63;;
31734;SDS011;18313;48.518;9.124;2023-11-21T00:08:38;7.13;;;1.40;;
31734;SDS011;18313;48.518;9.124;2023-11-21T00:11:05;7.35;;;1.70;;
31734;SDS011;18313;48.518;9.124;2023-11-21T00:13:32;7.00;;;1.65;;
31734;SDS011;18313;48.518;9.124;2023-11-21T00:16:01;6.82;;;1.80;;
31734;SDS011;18313;48.518;9.124;2023-11-21T00:18:29;6.30;;;1.80;;
31734;SDS011;18313;48.518;9.124;2023-11-21T00:20:56;6.82;;;1.58;;
31734;SDS011;18313;48.518;9.124;2023-11-21T00:23:25;6.03;;;1.50;;
31734;SDS011;18313;48.518;9.124;2023-11-21T00:25:52;5.97;;;1.50;;
31734;SDS011;18313;48.518;9.124;2023-11-21T00:28:19;9.20;;;1.45;;
31734;SDS011;18313;48.518;9.124;2023-11-21T00:30:46;5.15;;;1.50;;
31734;SDS011;18313;48.518;9.124;2023-11-21T00:33:13;10.13;;;1.70;;
31734;SDS011;18313;48.518;9.124;2023-11-21T00:35:41;6.68;;;1.30;;
31734;SDS011;18313;48.518;9.124;2023-11-21T00:38:08;6.30;;;1.20;;
31734;SDS011;18313;48.518;9.124;2023-11-21T00:40:35;7.28;;;1.50;;
31734;SDS011;18313;48.518;9.124;2023-11-21T00:43:02;7.50;;;1.40;;
31734;SDS011;18313;48.518;9.124;2023-11-21T00:45:32;3.58;;;1.17;;
31734;SDS011;18313;48.518;9.124;2023-11-21T00:47:59;6.20;;;1.63;;
31734;SDS011;18313;48.518;9.124;2023-11-21T00:50:26;2.88;;;1.10;;
31734;SDS011;18313;48.518;9.124;2023-11-21T00:52:53;7.82;;;1.40;;
31734;SDS011;18313;48.518;9.124;2023-11-21T00:55:21;2.90;;;1.10;;
31734;SDS011;18313;48.518;9.124;2023-11-21T00:57:48;9.05;;;1.67;;
31734;SDS011;18313;48.518;9.124;2023-11-21T01:00:16;6.32;;;1.48;;
31734;SDS011;18313;48.518;9.124;2023-11-21T01:02:44;6.55;;;1.33;;
31734;SDS011;18313;48.518;9.124;2023-11-21T01:05:12;3.65;;;1.23;;
31734;SDS011;18313;48.518;9.124;2023-11-21T01:07:39;5.20;;;1.20;;
31734;SDS011;18313;48.518;9.124;2023-11-21T01:10:06;4.82;;;1.10;;
31734;SDS011;18313;48.518;9.124;2023-11-21T01:12:35;6.18;;;1.23;;
31734;SDS011;18313;48.518;9.124;2023-11-21T01:15:07;2.47;;;1.00;;
31734;SDS011;18313;48.518;9.124;2023-11-21T01:17:34;9.05;;;1.40;;
31734;SDS011;18313;48.518;9.124;2023-11-21T01:20:02;3.53;;;1.10;;
31734;SDS011;18313;48.518;9.124;2023-11-21T01:22:33;3.67;;;1.10;;
31734;SDS011;18313;48.518;9.124;2023-11-21T01:25:00;4.05;;;1.00;;
31734;SDS011;18313;48.518;9.124;2023-11-21T01:27:27;4.35;;;0.80;;
31734;SDS011;18313;48.518;9.124;2023-11-21T01:29:54;6.97;;;1.70;;
31734;SDS011;18313;48.518;9.124;2023-11-21T01:32:21;2.58;;;0.93;;
31734;SDS011;18313;48.518;9.124;2023-11-21T01:34:50;4.78;;;1.10;;
31734;SDS011;18313;48.518;9.124;2023-11-21T01:37:17;6.65;;;1.00;;
31734;SDS011;18313;48.518;9.124;2023-11-21T01:39:44;3.90;;;0.88;;
31734;SDS011;18313;48.518;9.124;2023-11-21T01:42:11;4.82;;;0.90;;
31734;SDS011;18313;48.518;9.124;2023-11-21T01:44:39;4.47;;;0.80;;
31734;SDS011;18313;48.518;9.124;2023-11-21T01:47:06;1.33;;;0.60;;
31734;SDS011;18313;48.518;9.124;2023-11-21T01:49:35;4.13;;;1.00;;
31734;SDS011;18313;48.518;9.124;2023-11-21T01:52:03;3.00;;;1.30;;
31734;SDS011;18313;48.518;9.124;2023-11-21T01:54:31;2.72;;;0.70;;
31734;SDS011;18313;48.518;9.124;2023-11-21T01:56:58;4.45;;;1.08;;
31734;SDS011;18313;48.518;9.124;2023-11-21T01:59:31;3.03;;;0.82;;
31734;SDS011;18313;48.518;9.124;2023-11-21T02:02:01;4.50;;;0.98;;
31734;SDS011;18313;48.518;9.124;2023-11-21T02:04:28;2.60;;;0.60;;
31734;SDS011;18313;48.518;9.124;2023-11-21T02:06:55;2.58;;;0.70;;
31734;SDS011;18313;48.518;9.124;2023-11-21T02:09:28;2.95;;;0.70;;
31734;SDS011;18313;48.518;9.124;2023-11-21T02:11:59;1.65;;;0.70;;
31734;SDS011;18313;48.518;9.124;2023-11-21T02:14:27;3.85;;;1.02;;
31734;SDS011;18313;48.518;9.124;2023-11-21T02:16:54;3.40;;;0.80;;
31734;SDS011;18313;48.518;9.124;2023-11-21T02:19:23;1.63;;;0.80;;
31734;SDS011;18313;48.518;9.124;2023-11-21T02:21:56;1.10;;;0.50;;
31734;SDS011;18313;48.518;9.124;2023-11-21T02:24:27;1.48;;;0.57;;
31734;SDS011;18313;48.518;9.124;2023-11-21T02:26:54;7.70;;;2.15;;
31734;SDS011;18313;48.518;9.124;2023-11-21T02:29:21;2.45;;;1.67;;
31734;SDS011;18313;48.518;9.124;2023-11-21T02:31:50;1.50;;;0.57;;
31734;SDS011;18313;48.518;9.124;2023-11-21T02:34:18;2.65;;;0.60;;
31734;SDS011;18313;48.518;9.124;2023-11-21T02:36:46;2.47;;;0.52;;
31734;SDS011;18313;48.518;9.124;2023-11-21T02:39:15;2.88;;;0.65;;
31734;SDS011;18313;48.518;9.124;2023-11-21T02:41:43;1.75;;;0.50;;
31734;SDS011;18313;48.518;9.124;2023-11-21T02:44:11;3.22;;;0.50;;
31734;SDS011;18313;48.518;9.124;2023-11-21T02:46:38;2.08;;;0.60;;
31734;SDS011;18313;48.518;9.124;2023-11-21T02:49:06;4.53;;;0.60;;
31734;SDS011;18313;48.518;9.124;2023-11-21T02:51:33;2.28;;;0.65;;
31734;SDS011;18313;48.518;9.124;2023-11-21T02:54:00;3.20;;;0.50;;
31734;SDS011;18313;48.518;9.124;2023-11-21T02:56:29;1.92;;;0.52;;
31734;SDS011;18313;48.518;9.124;2023-11-21T02:58:56;4.25;;;0.50;;
31734;SDS011;18313;48.518;9.124;2023-11-21T03:01:23;0.63;;;0.40;;
31734;SDS011;18313;48.518;9.124;2023-11-21T03:03:51;2.63;;;0.50;;
31734;SDS011;18313;48.518;9.124;2023-11-21T03:06:19;1.65;;;0.50;;
31734;SDS011;18313;48.518;9.124;2023-11-21T03:08:47;1.63;;;0.50;;
31734;SDS011;18313;48.518;9.124;2023-11-21T03:11:14;1.48;;;0.50;;
31734;SDS011;18313;48.518;9.124;2023-11-21T03:13:41;1.30;;;0.50;;
31734;SDS011;18313;48.518;9.124;2023-11-21T03:16:09;1.50;;;0.50;;
31734;SDS011;18313;48.518;9.124;2023-11-21T03:18:40;1.85;;;0.60;;
31734;SDS011;18313;48.518;9.124;2023-11-21T03:21:07;1.08;;;0.43;;
31734;SDS011;18313;48.518;9.124;2023-11-21T03:23:37;1.17;;;0.60;;
31734;SDS011;18313;48.518;9.124;2023-11-21T03:26:04;2.15;;;0.60;;
31734;SDS011;18313;48.518;9.124;2023-11-21T03:28:34;1.45;;;0.40;;
31734;SDS011;18313;48.518;9.124;2023-11-21T03:31:01;0.43;;;0.40;;
31734;SDS011;18313;48.518;9.124;2023-11-21T03:33:28;1.17;;;0.50;;
31734;SDS011;18313;48.518;9.124;2023-11-21T03:35:55;3.22;;;0.60;;
31734;SDS011;18313;48.518;9.124;2023-11-21T03:38:22;1.35;;;0.50;;
31734;SDS011;18313;48.518;9.124;2023-11-21T03:40:49;2.00;;;0.50;;
31734;SDS011;18313;48.518;9.124;2023-11-21T03:43:17;2.47;;;0.75;;
31734;SDS011;18313;48.518;9.124;2023-11-21T03:45:44;2.03;;;0.40;;
31734;SDS011;18313;48.518;9.124;2023-11-21T03:48:12;1.52;;;0.50;;
31734;SDS011;18313;48.518;9.124;2023-11-21T03:50:39;1.27;;;0.40;;
31734;SDS011;18313;48.518;9.124;2023-11-21T03:53:06;1.75;;;0.40;;
31734;SDS011;18313;48.518;9.124;2023-11-21T03:55:33;1.02;;;0.43;;
31734;SDS011;18313;48.518;9.124;2023-11-21T03:58:00;0.75;;;0.30;;
31734;SDS011;18313;48.518;9.124;2023-11-21T04:00:27;1.27;;;0.45;;
31734;SDS011;18313;48.518;9.124;2023-11-21T04:02:54;1.42;;;0.40;;
31734;SDS011;18313;48.518;9.124;2023-11-21T04:05:22;0.82;;;0.30;;
31734;SDS011;18313;48.518;9.124;2023-11-21T04:07:50;1.58;;;0.40;;
31734;SDS011;18313;48.518;9.124;2023-11-21T04:10:17;1.38;;;0.38;;
31734;SDS011;18313;48.518;9.124;2023-11-21T04:12:45;1.70;;;0.50;;
31734;SDS011;18313;48.518;9.124;2023-11-21T04:15:12;0.50;;;0.30;;
31734;SDS011;18313;48.518;9.124;2023-11-21T04:17:41;0.70;;;0.30;;
31734;SDS011;18313;48.518;9.124;2023-11-21T04:20:08;0.63;;;0.30;;
31734;SDS011;18313;48.518;9.124;2023-11-21T04:22:37;1.02;;;0.40;;
31734;SDS011;18313;48.518;9.124;2023-11-21T04:25:11;2.58;;;0.40;;
31734;SDS011;18313;48.518;9.124;2023-11-21T04:27:40;0.77;;;0.40;;
31734;SDS011;18313;48.518;9.124;2023-11-21T04:30:10;0.98;;;0.30;;
31734;SDS011;18313;48.518;9.124;2023-11-21T04:32:38;0.85;;;0.40;;
31734;SDS011;18313;48.518;9.124;2023-11-21T04:35:08;1.10;;;0.38;;
31734;SDS011;18313;48.518;9.124;2023-11-21T04:37:35;0.55;;;0.30;;
31734;SDS011;18313;48.518;9.124;2023-11-21T04:40:03;0.85;;;0.40;;
31734;SDS011;18313;48.518;9.124;2023-11-21T04:42:36;1.33;;;0.40;;
31734;SDS011;18313;48.518;9.124;2023-11-21T04:45:04;1.17;;;0.30;;
31734;SDS011;18313;48.518;9.124;2023-11-21T04:47:36;0.30;;;0.30;;
31734;SDS011;18313;48.518;9.124;2023-11-21T04:50:04;0.75;;;0.35;;
31734;SDS011;18313;48.518;9.124;2023-11-21T04:52:32;5.68;;;0.90;;
31734;SDS011;18313;48.518;9.124;2023-11-21T04:55:00;1.27;;;0.47;;
31734;SDS011;18313;48.518;9.124;2023-11-21T04:57:28;1.20;;;0.40;;
31734;SDS011;18313;48.518;9.124;2023-11-21T04:59:56;1.88;;;0.50;;
31734;SDS011;18313;48.518;9.124;2023-11-21T05:02:23;1.90;;;0.40;;
31734;SDS011;18313;48.518;9.124;2023-11-21T05:05:04;0.52;;;0.30;;
31734;SDS011;18313;48.518;9.124;2023-11-21T05:07:33;0.98;;;0.40;;
31734;SDS011;18313;48.518;9.124;2023-11-21T05:10:03;2.00;;;0.60;;
31734;SDS011;18313;48.518;9.124;2023-11-21T05:12:35;0.38;;;0.30;;
31734;SDS011;18313;48.518;9.124;2023-11-21T05:15:06;1.63;;;0.43;;
31734;SDS011;18313;48.518;9.124;2023-11-21T05:17:37;0.73;;;0.40;;
31734;SDS011;18313;48.518;9.124;2023-11-21T05:20:11;1.35;;;0.40;;
31734;SDS011;18313;48.518;9.124;2023-11-21T05:22:40;1.58;;;0.50;;
31734;SDS011;18313;48.518;9.124;2023-11-21T05:25:09;2.10;;;0.45;;
31734;SDS011;18313;48.518;9.124;2023-11-21T05:27:37;1.92;;;0.47;;
31734;SDS011;18313;48.518;9.124;2023-11-21T05:30:05;2.25;;;0.57;;
31734;SDS011;18313;48.518;9.124;2023-11-21T05:32:35;0.57;;;0.50;;
31734;SDS011;18313;48.518;9.124;2023-11-21T05:35:03;1.65;;;0.60;;
31734;SDS011;18313;48.518;9.124;2023-11-21T05:37:30;1.50;;;0.60;;
31734;SDS011;18313;48.518;9.124;2023-11-21T05:39:57;0.80;;;0.50;;
31734;SDS011;18313;48.518;9.124;2023-11-21T05:42:24;0.80;;;0.40;;
31734;SDS011;18313;48.518;9.124;2023-11-21T05:44:51;1.35;;;0.50;;
31734;SDS011;18313;48.518;9.124;2023-11-21T05:47:18;1.23;;;0.40;;
31734;SDS011;18313;48.518;9.124;2023-11-21T05:49:46;2.78;;;0.75;;
31734;SDS011;18313;48.518;9.124;2023-11-21T05:52:17;1.73;;;0.63;;
31734;SDS011;18313;48.518;9.124;2023-11-21T05:54:44;2.22;;;0.70;;
31734;SDS011;18313;48.518;9.124;2023-11-21T05:57:12;1.08;;;0.60;;
31734;SDS011;18313;48.518;9.124;2023-11-21T05:59:39;1.67;;;0.70;;
31734;SDS011;18313;48.518;9.124;2023-11-21T06:02:06;1.35;;;0.70;;
31734;SDS011;18313;48.518;9.124;2023-11-21T06:04:34;1.10;;;0.60;;
31734;SDS011;18313;48.518;9.124;2023-11-21T06:07:01;2.67;;;0.80;;
31734;SDS011;18313;48.518;9.124;2023-11-21T06:09:29;1.55;;;0.80;;
31734;SDS011;18313;48.518;9.124;2023-11-21T06:11:56;3.17;;;1.00;;
31734;SDS011;18313;48.518;9.124;2023-11-21T06:14:23;3.85;;;1.42;;
31734;SDS011;18313;48.518;9.124;2023-11-21T06:16:50;4.05;;;1.90;;
31734;SDS011;18313;48.518;9.124;2023-11-21T06:19:19;2.95;;;1.80;;
31734;SDS011;18313;48.518;9.124;2023-11-21T06:21:46;5.60;;;2.65;;
31734;SDS011;18313;48.518;9.124;2023-11-21T06:24:13;4.47;;;2.45;;
31734;SDS011;18313;48.518;9.124;2023-11-21T06:26:42;4.45;;;2.65;;
31734;SDS011;18313;48.518;9.124;2023-11-21T06:29:10;3.92;;;1.95;;
31734;SDS011;18313;48.518;9.124;2023-11-21T06:31:37;2.33;;;1.20;;
31734;SDS011;18313;48.518;9.124;2023-11-21T06:34:06;2.20;;;0.70;;
31734;SDS011;18313;48.518;9.124;2023-11-21T06:36:33;1.02;;;0.60;;
31734;SDS011;18313;48.518;9.124;2023-11-21T06:39:01;1.85;;;0.52;;
31734;SDS011;18313;48.518;9.124;2023-11-21T06:41:28;1.73;;;0.70;;
31734;SDS011;18313;48.518;9.124;2023-11-21T06:43:56;1.92;;;0.70;;
31734;SDS011;18313;48.518;9.124;2023-11-21T06:46:25;1.33;;;0.70;;
31734;SDS011;18313;48.518;9.124;2023-11-21T06:48:53;3.10;;;0.80;;
31734;SDS011;18313;48.518;9.124;2023-11-21T06:51:20;2.15;;;0.65;;
31734;SDS011;18313;48.518;9.124;2023-11-21T06:53:47;3.45;;;0.70;;
31734;SDS011;18313;48.518;9.124;2023-11-21T06:56:15;3.38;;;0.80;;
31734;SDS011;18313;48.518;9.124;2023-11-21T06:58:45;1.17;;;0.63;;
31734;SDS011;18313;48.518;9.124;2023-11-21T07:01:13;2.25;;;0.77;;
31734;SDS011;18313;48.518;9.124;2023-11-21T07:03:40;2.35;;;0.73;;
31734;SDS011;18313;48.518;9.124;2023-11-21T07:06:08;2.30;;;0.90;;
31734;SDS011;18313;48.518;9.124;2023-11-21T07:08:35;2.67;;;0.80;;
31734;SDS011;18313;48.518;9.124;2023-11-21T07:11:03;4.43;;;1.00;;
31734;SDS011;18313;48.518;9.124;2023-11-21T07:13:31;4.40;;;0.80;;
31734;SDS011;18313;48.518;9.124;2023-11-21T07:15:59;2.47;;;0.60;;
31734;SDS011;18313;48.518;9.124;2023-11-21T07:18:26;1.42;;;0.60;;
31734;SDS011;18313;48.518;9.124;2023-11-21T07:20:53;2.10;;;1.10;;
31734;SDS011;18313;48.518;9.124;2023-11-21T07:23:21;1.52;;;0.68;;
31734;SDS011;18313;48.518;9.124;2023-11-21T07:25:49;2.17;;;0.70;;
31734;SDS011;18313;48.518;9.124;2023-11-21T07:28:16;1.33;;;0.90;;
31734;SDS011;18313;48.518;9.124;2023-11-21T07:30:43;1.20;;;0.70;;
31734;SDS011;18313;48.518;9.124;2023-11-21T07:33:10;2.05;;;0.90;;
31734;SDS011;18313;48.518;9.124;2023-11-21T07:35:37;6.43;;;1.05;;
31734;SDS011;18313;48.518;9.124;2023-11-21T07:38:05;2.10;;;1.00;;
31734;SDS011;18313;48.518;9.124;2023-11-21T07:40:32;2.55;;;1.00;;
31734;SDS011;18313;48.518;9.124;2023-11-21T07:42:59;2.88;;;1.00;;
31734;SDS011;18313;48.518;9.124;2023-11-21T07:45:26;1.55;;;0.70;;
31734;SDS011;18313;48.518;9.124;2023-11-21T07:47:56;2.40;;;0.85;;
31734;SDS011;18313;48.518;9.124;2023-11-21T07:50:24;1.23;;;0.65;;
31734;SDS011;18313;48.518;9.124;2023-11-21T07:52:53;1.92;;;0.80;;
31734;SDS011;18313;48.518;9.124;2023-11-21T07:55:21;2.28;;;0.70;;
31734;SDS011;18313;48.518;9.124;2023-11-21T07:57:48;4.50;;;0.88;;
31734;SDS011;18313;48.518;9.124;2023-11-21T08:00:15;2.75;;;0.80;;
31734;SDS011;18313;48.518;9.124;2023-11-21T08:02:43;3.15;;;0.63;;
31734;SDS011;18313;48.518;9.124;2023-11-21T08:05:12;0.77;;;0.60;;
31734;SDS011;18313;48.518;9.124;2023-11-21T08:07:50;1.52;;;0.70;;
31734;SDS011;18313;48.518;9.124;2023-11-21T08:10:18;1.52;;;0.70;;
31734;SDS011;18313;48.518;9.124;2023-11-21T08:12:45;3.75;;;0.70;;
31734;SDS011;18313;48.518;9.124;2023-11-21T08:15:12;2.13;;;0.68;;
31734;SDS011;18313;48.518;9.124;2023-11-21T08:17:39;2.50;;;0.70;;
31734;SDS011;18313;48.518;9.124;2023-11-21T08:20:06;0.98;;;0.52;;
31734;SDS011;18313;48.518;9.124;2023-11-21T08:22:35;1.77;;;0.82;;
31734;SDS011;18313;48.518;9.124;2023-11-21T08:25:03;3.72;;;0.73;;
31734;SDS011;18313;48.518;9.124;2023-11-21T08:27:31;3.83;;;0.70;;
31734;SDS011;18313;48.518;9.124;2023-11-21T08:29:59;1.65;;;0.70;;
31734;SDS011;18313;48.518;9.124;2023-11-21T08:32:26;2.70;;;0.90;;
31734;SDS011;18313;48.518;9.124;2023-11-21T08:34:53;2.65;;;0.98;;
31734;SDS011;18313;48.518;9.124;2023-11-21T08:37:21;2.45;;;0.90;;
31734;SDS011;18313;48.518;9.124;2023-11-21T08:39:48;2.10;;;0.82;;
31734;SDS011;18313;48.518;9.124;2023-11-21T08:42:15;1.92;;;0.80;;
31734;SDS011;18313;48.518;9.124;2023-11-21T08:44:42;1.27;;;0.60;;
31734;SDS011;18313;48.518;9.124;2023-11-21T08:47:10;2.08;;;0.60;;
31734;SDS011;18313;48.518;9.124;2023-11-21T08:49:38;0.98;;;0.73;;
31734;SDS011;18313;48.518;9.124;2023-11-21T08:52:05;2.88;;;1.40;;
31734;SDS011;18313;48.518;9.124;2023-11-21T08:54:33;3.08;;;2.15;;
31734;SDS011;18313;48.518;9.124;2023-11-21T08:57:00;25.30;;;18.27;;
31734;SDS011;18313;48.518;9.124;2023-11-21T08:59:28;9.90;;;7.10;;
31734;SDS011;18313;48.518;9.124;2023-11-21T09:01:55;7.65;;;4.45;;
31734;SDS011;18313;48.518;9.124;2023-11-21T09:04:23;4.47;;;2.33;;
31734;SDS011;18313;48.518;9.124;2023-11-21T09:06:50;3.55;;;1.40;;
31734;SDS011;18313;48.518;9.124;2023-11-21T09:09:17;3.63;;;0.90;;
31734;SDS011;18313;48.518;9.124;2023-11-21T09:11:46;1.13;;;0.70;;
31734;SDS011;18313;48.518;9.124;2023-11-21T09:14:15;2.60;;;0.70;;
31734;SDS011;18313;48.518;9.124;2023-11-21T09:16:44;2.28;;;0.80;;
31734;SDS011;18313;48.518;9.124;2023-11-21T09:19:12;1.35;;;0.70;;
31734;SDS011;18313;48.518;9.124;2023-11-21T09:21:40;2.97;;;0.80;;
31734;SDS011;18313;48.518;9.124;2023-11-21T09:24:07;2.72;;;0.80;;
31734;SDS011;18313;48.518;9.124;2023-11-21T09:26:35;1.23;;;0.70;;
31734;SDS011;18313;48.518;9.124;2023-11-21T09:29:02;1.75;;;0.85;;
31734;SDS011;18313;48.518;9.124;2023-11-21T09:31:30;1.05;;;0.80;;
31734;SDS011;18313;48.518;9.124;2023-11-21T09:33:58;1.20;;;0.70;;
31734;SDS011;18313;48.518;9.124;2023-11-21T09:36:25;1.63;;;0.70;;
31734;SDS011;18313;48.518;9.124;2023-11-21T09:38:54;1.27;;;0.73;;
31734;SDS011;18313;48.518;9.124;2023-11-21T09:41:25;1.45;;;0.63;;
31734;SDS011;18313;48.518;9.124;2023-11-21T09:44:02;1.63;;;0.80;;
31734;SDS011;18313;48.518;9.124;2023-11-21T09:46:33;5.07;;;1.10;;
31734;SDS011;18313;48.518;9.124;2023-11-21T09:49:06;2.80;;;0.90;;
31734;SDS011;18313;48.518;9.124;2023-11-21T09:51:39;2.47;;;0.90;;
31734;SDS011;18313;48.518;9.124;2023-11-21T09:54:09;2.92;;;1.88;;
31734;SDS011;18313;48.518;9.124;2023-11-21T09:56:38;2.38;;;0.77;;
31734;SDS011;18313;48.518;9.124;2023-11-21T09:59:05;1.05;;;0.70;;
31734;SDS011;18313;48.518;9.124;2023-11-21T10:01:38;1.52;;;0.80;;
31734;SDS011;18313;48.518;9.124;2023-11-21T10:04:10;2.45;;;0.70;;
31734;SDS011;18313;48.518;9.124;2023-11-21T10:06:40;3.88;;;0.77;;
31734;SDS011;18313;48.518;9.124;2023-11-21T10:09:09;2.10;;;0.80;;
31734;SDS011;18313;48.518;9.124;2023-11-21T10:11:41;1.38;;;0.50;;
31734;SDS011;18313;48.518;9.124;2023-11-21T10:14:10;1.77;;;0.80;;
31734;SDS011;18313;48.518;9.124;2023-11-21T10:16:41;1.77;;;0.75;;
31734;SDS011;18313;48.518;9.124;2023-11-21T10:19:13;1.38;;;0.70;;
31734;SDS011;18313;48.518;9.124;2023-11-21T10:21:42;1.55;;;0.73;;
31734;SDS011;18313;48.518;9.124;2023-11-21T10:24:10;0.70;;;0.50;;
31734;SDS011;18313;48.518;9.124;2023-11-21T10:26:38;2.17;;;0.80;;
31734;SDS011;18313;48.518;9.124;2023-11-21T10:29:18;2.83;;;1.02;;
31734;SDS011;18313;48.518;9.124;2023-11-21T10:31:51;1.48;;;0.80;;
31734;SDS011;18313;48.518;9.124;2023-11-21T10:34:19;1.48;;;0.70;;
31734;SDS011;18313;48.518;9.124;2023-11-21T10:36:47;1.90;;;0.90;;
31734;SDS011;18313;48.518;9.124;2023-11-21T10:39:18;1.23;;;0.60;;
31734;SDS011;18313;48.518;9.124;2023-11-21T10:41:47;4.57;;;0.82;;
31734;SDS011;18313;48.518;9.124;2023-11-21T10:44:15;2.38;;;0.82;;
31734;SDS011;18313;48.518;9.124;2023-11-21T10:46:51;1.63;;;0.70;;
31734;SDS011;18313;48.518;9.124;2023-11-21T10:49:24;2.45;;;0.70;;
31734;SDS011;18313;48.518;9.124;2023-11-21T10:51:52;1.80;;;0.70;;
31734;SDS011;18313;48.518;9.124;2023-11-21T10:54:20;0.75;;;0.70;;
31734;SDS011;18313;48.518;9.124;2023-11-21T10:56:49;2.33;;;0.60;;
31734;SDS011;18313;48.518;9.124;2023-11-21T10:59:18;1.85;;;0.90;;
31734;SDS011;18313;48.518;9.124;2023-11-21T11:01:47;1.30;;;0.60;;
31734;SDS011;18313;48.518;9.124;2023-11-21T11:04:18;1.17;;;0.60;;
31734;SDS011;18313;48.518;9.124;2023-11-21T11:06:48;1.15;;;0.50;;
31734;SDS011;18313;48.518;9.124;2023-11-21T11:11:47;1.27;;;0.70;;
31734;SDS011;18313;48.518;9.124;2023-11-21T11:14:15;2.80;;;1.10;;
31734;SDS011;18313;48.518;9.124;2023-11-21T11:16:43;5.53;;;2.60;;
31734;SDS011;18313;48.518;9.124;2023-11-21T11:19:11;6.68;;;3.03;;
31734;SDS011;18313;48.518;9.124;2023-11-21T11:24:35;5.15;;;3.30;;
31734;SDS011;18313;48.518;9.124;2023-11-21T11:27:20;4.95;;;1.60;;
31734;SDS011;18313;48.518;9.124;2023-11-21T11:32:35;1.95;;;1.40;;
31734;SDS011;18313;48.518;9.124;2023-11-21T11:35:10;3.42;;;1.50;;
31734;SDS011;18313;48.518;9.124;2023-11-21T11:37:50;3.00;;;1.30;;
31734;SDS011;18313;48.518;9.124;2023-11-21T11:40:18;2.25;;;1.27;;
31734;SDS011;18313;48.518;9.124;2023-11-21T11:42:57;2.78;;;1.58;;
31734;SDS011;18313;48.518;9.124;2023-11-21T11:45:25;2.55;;;1.70;;
31734;SDS011;18313;48.518;9.124;2023-11-21T11:48:00;2.22;;;1.60;;
31734;SDS011;18313;48.518;9.124;2023-11-21T11:50:28;3.30;;;1.35;;
31734;SDS011;18313;48.518;9.124;2023-11-21T11:52:55;5.60;;;3.08;;
31734;SDS011;18313;48.518;9.124;2023-11-21T11:55:42;3.90;;;1.50;;
31734;SDS011;18313;48.518;9.124;2023-11-21T11:58:10;3.95;;;1.40;;
31734;SDS011;18313;48.518;9.124;2023-11-21T12:00:38;1.70;;;1.10;;
31734;SDS011;18313;48.518;9.124;2023-11-21T12:03:08;1.52;;;1.15;;
31734;SDS011;18313;48.518;9.124;2023-11-21T12:05:36;1.52;;;1.00;;
31734;SDS011;18313;48.518;9.124;2023-11-21T12:08:06;1.92;;;1.00;;
31734;SDS011;18313;48.518;9.124;2023-11-21T12:10:35;3.65;;;1.30;;
31734;SDS011;18313;48.518;9.124;2023-11-21T12:13:05;1.85;;;1.10;;
31734;SDS011;18313;48.518;9.124;2023-11-21T12:15:34;1.77;;;1.00;;
31734;SDS011;18313;48.518;9.124;2023-11-21T12:18:03;2.03;;;1.05;;
31734;SDS011;18313;48.518;9.124;2023-11-21T12:20:30;3.13;;;1.00;;
31734;SDS011;18313;48.518;9.124;2023-11-21T12:22:58;2.20;;;1.10;;
31734;SDS011;18313;48.518;9.124;2023-11-21T12:25:27;2.90;;;1.40;;
31734;SDS011;18313;48.518;9.124;2023-11-21T12:27:56;3.50;;;1.48;;
31734;SDS011;18313;48.518;9.124;2023-11-21T12:30:24;2.45;;;1.40;;
31734;SDS011;18313;48.518;9.124;2023-11-21T12:32:55;2.17;;;1.30;;
31734;SDS011;18313;48.518;9.124;2023-11-21T12:35:24;3.78;;;1.35;;
31734;SDS011;18313;48.518;9.124;2023-11-21T12:37:53;2.40;;;1.35;;
31734;SDS011;18313;48.518;9.124;2023-11-21T12:40:23;2.30;;;1.40;;
31734;SDS011;18313;48.518;9.124;2023-11-21T12:42:52;3.50;;;1.33;;
31734;SDS011;18313;48.518;9.124;2023-11-21T12:45:20;1.83;;;1.17;;
31734;SDS011;18313;48.518;9.124;2023-11-21T12:47:48;2.60;;;1.40;;
31734;SDS011;18313;48.518;9.124;2023-11-21T12:50:19;5.38;;;1.20;;
31734;SDS011;18313;48.518;9.124;2023-11-21T12:52:50;3.63;;;1.60;;
31734;SDS011;18313;48.518;9.124;2023-11-21T12:55:20;3.33;;;1.30;;
31734;SDS011;18313;48.518;9.124;2023-11-21T12:57:48;1.90;;;1.25;;
31734;SDS011;18313;48.518;9.124;2023-11-21T13:00:33;3.55;;;1.40;;
31734;SDS011;18313;48.518;9.124;2023-11-21T13:03:05;2.60;;;1.50;;
31734;SDS011;18313;48.518;9.124;2023-11-21T13:05:34;4.38;;;1.60;;
31734;SDS011;18313;48.518;9.124;2023-11-21T13:08:06;2.55;;;1.45;;
31734;SDS011;18313;48.518;9.124;2023-11-21T13:10:35;2.38;;;1.58;;
31734;SDS011;18313;48.518;9.124;2023-11-21T13:13:04;2.38;;;1.48;;
31734;SDS011;18313;48.518;9.124;2023-11-21T13:15:38;2.97;;;1.70;;
31734;SDS011;18313;48.518;9.124;2023-11-21T13:18:07;2.72;;;1.50;;
31734;SDS011;18313;48.518;9.124;2023-11-21T13:20:37;2.28;;;1.33;;
31734;SDS011;18313;48.518;9.124;2023-11-21T13:23:09;3.33;;;1.45;;
31734;SDS011;18313;48.518;9.124;2023-11-21T13:25:42;5.60;;;1.80;;
31734;SDS011;18313;48.518;9.124;2023-11-21T13:28:20;17.33;;;9.57;;
31734;SDS011;18313;48.518;9.124;2023-11-21T13:30:48;8.98;;;4.93;;
31734;SDS011;18313;48.518;9.124;2023-11-21T13:33:19;21.20;;;11.75;;
31734;SDS011;18313;48.518;9.124;2023-11-21T13:35:48;15.75;;;9.40;;
31734;SDS011;18313;48.518;9.124;2023-11-21T13:38:18;16.55;;;10.43;;
31734;SDS011;18313;48.518;9.124;2023-11-21T13:40:49;4.40;;;2.55;;
31734;SDS011;18313;48.518;9.124;2023-11-21T13:43:20;3.33;;;2.03;;
31734;SDS011;18313;48.518;9.124;2023-11-21T13:45:51;3.58;;;2.38;;
31734;SDS011;18313;48.518;9.124;2023-11-21T13:48:29;4.15;;;1.90;;
31734;SDS011;18313;48.518;9.124;2023-11-21T13:51:07;3.97;;;1.55;;
31734;SDS011;18313;48.518;9.124;2023-11-21T13:53:39;2.78;;;1.60;;
31734;SDS011;18313;48.518;9.124;2023-11-21T13:56:08;2.72;;;1.60;;
31734;SDS011;18313;48.518;9.124;2023-11-21T13:58:35;2.90;;;1.60;;
31734;SDS011;18313;48.518;9.124;2023-11-21T14:01:20;4.90;;;2.20;;
31734;SDS011;18313;48.518;9.124;2023-11-21T14:03:57;3.00;;;1.73;;
31734;SDS011;18313;48.518;9.124;2023-11-21T14:06:45;3.53;;;1.98;;
31734;SDS011;18313;48.518;9.124;2023-11-21T14:09:18;5.18;;;2.15;;
31734;SDS011;18313;48.518;9.124;2023-11-21T14:11:52;4.10;;;2.50;;
31734;SDS011;18313;48.518;9.124;2023-11-21T14:14:23;5.35;;;2.70;;
31734;SDS011;18313;48.518;9.124;2023-11-21T14:16:51;4.97;;;2.83;;
31734;SDS011;18313;48.518;9.124;2023-11-21T14:19:19;5.18;;;2.97;;
31734;SDS011;18313;48.518;9.124;2023-11-21T14:21:46;3.78;;;2.50;;
31734;SDS011;18313;48.518;9.124;2023-11-21T14:24:17;3.63;;;1.80;;
31734;SDS011;18313;48.518;9.124;2023-11-21T14:26:45;4.13;;;1.83;;
31734;SDS011;18313;48.518;9.124;2023-11-21T14:29:14;3.63;;;2.00;;
31734;SDS011;18313;48.518;9.124;2023-11-21T14:31:46;3.15;;;1.90;;
31734;SDS011;18313;48.518;9.124;2023-11-21T14:34:14;2.88;;;1.85;;
31734;SDS011;18313;48.518;9.124;2023-11-21T14:36:45;4.07;;;1.70;;
31734;SDS011;18313;48.518;9.124;2023-11-21T14:39:13;10.15;;;4.45;;
31734;SDS011;18313;48.518;9.124;2023-11-21T14:41:50;4.07;;;2.00;;
31734;SDS011;18313;48.518;9.124;2023-11-21T14:44:19;3.63;;;1.40;;
31734;SDS011;18313;48.518;9.124;2023-11-21T14:46:50;6.32;;;4.80;;
31734;SDS011;18313;48.518;9.124;2023-11-21T14:49:19;3.75;;;2.30;;
31734;SDS011;18313;48.518;9.124;2023-11-21T14:51:47;5.20;;;3.55;;
31734;SDS011;18313;48.518;9.124;2023-11-21T14:54:24;3.38;;;2.30;;
31734;SDS011;18313;48.518;9.124;2023-11-21T14:57:09;4.85;;;2.80;;
31734;SDS011;18313;48.518;9.124;2023-11-21T14:59:43;7.72;;;5.68;;
31734;SDS011;18313;48.518;9.124;2023-11-21T15:02:24;6.15;;;3.03;;
31734;SDS011;18313;48.518;9.124;2023-11-21T15:05:10;3.25;;;1.85;;
31734;SDS011;18313;48.518;9.124;2023-11-21T15:07:43;4.85;;;3.53;;